createdAt,value
2018-03-07T00:00:20.563Z,99.90
2018-03-07T00:02:48.020Z,99.90
2018-03-07T00:05:15.465Z,99.90
2018-03-07T00:07:42.924Z,99.90
2018-03-07T00:10:10.414Z,99.90
2018-03-07T00:12:38.653Z,99.90
2018-03-07T00:15:06.097Z,99.90
2018-03-07T00:17:33.555Z,99.90
2018-03-07T00:20:01.030Z,99.90
2018-03-07T00:22:28.486Z,99.90
2018-03-07T00:24:55.949Z,99.90
2018-03-07T00:27:23.425Z,99.90
2018-03-07T00:29:50.881Z,99.90
2018-03-07T00:32:19.122Z,99.90
2018-03-07T00:34:46.569Z,99.90
2018-03-07T00:37:14.057Z,99.90
2018-03-07T00:39:42.294Z,99.90
2018-03-07T00:42:09.761Z,99.90
2018-03-07T00:44:37.217Z,99.90
2018-03-07T00:47:04.701Z,99.90
2018-03-07T00:49:32.954Z,99.90
2018-03-07T00:52:00.424Z,99.90
2018-03-07T00:54:27.873Z,99.90
2018-03-07T00:56:55.330Z,99.90
2018-03-07T00:59:22.786Z,99.90
2018-03-07T01:01:50.294Z,99.90
2018-03-07T01:04:17.772Z,99.90
2018-03-07T01:06:45.229Z,99.90
2018-03-07T01:09:12.701Z,99.90
2018-03-07T01:11:40.170Z,99.90
2018-03-07T01:14:07.629Z,99.90
2018-03-07T01:16:35.117Z,99.90
2018-03-07T01:19:03.343Z,99.90
2018-03-07T01:21:30.791Z,99.90
2018-03-07T01:23:58.250Z,99.90
2018-03-07T01:26:25.754Z,99.90
2018-03-07T01:28:53.205Z,99.90
2018-03-07T01:31:21.429Z,99.90
2018-03-07T01:33:48.886Z,99.90
2018-03-07T01:36:16.336Z,99.90
2018-03-07T01:38:43.797Z,99.90
2018-03-07T01:41:11.253Z,99.90
2018-03-07T01:43:38.729Z,99.90
2018-03-07T01:46:06.177Z,99.90
2018-03-07T01:48:33.634Z,99.90
2018-03-07T01:51:01.085Z,99.90
2018-03-07T01:53:28.541Z,99.90
2018-03-07T01:55:56.022Z,99.90
2018-03-07T01:58:23.474Z,99.90
2018-03-07T02:00:50.925Z,99.90
2018-03-07T02:03:24.098Z,99.90
2018-03-07T02:05:51.569Z,99.90
2018-03-07T02:08:19.027Z,99.90
2018-03-07T02:10:46.498Z,99.90
2018-03-07T02:13:13.969Z,99.90
2018-03-07T02:15:42.209Z,99.90
2018-03-07T02:18:09.657Z,99.90
2018-03-07T02:20:37.113Z,99.90
2018-03-07T02:23:04.593Z,99.90
2018-03-07T02:25:32.049Z,99.90
2018-03-07T02:27:59.513Z,99.90
2018-03-07T02:30:26.970Z,99.90
2018-03-07T02:32:54.432Z,99.90
2018-03-07T02:35:21.887Z,99.90
2018-03-07T02:37:49.333Z,99.90
2018-03-07T02:40:16.781Z,99.90
2018-03-07T02:42:44.254Z,99.90
2018-03-07T02:45:11.725Z,99.90
2018-03-07T02:47:39.929Z,99.90
2018-03-07T02:50:07.387Z,99.90
2018-03-07T02:52:34.829Z,99.90
2018-03-07T02:55:02.303Z,99.90
2018-03-07T02:57:29.758Z,99.90
2018-03-07T02:59:57.222Z,99.90
2018-03-07T03:02:24.698Z,99.90
2018-03-07T03:04:52.149Z,99.90
2018-03-07T03:07:19.606Z,99.90
2018-03-07T03:09:47.056Z,99.90
2018-03-07T03:12:14.549Z,99.90
2018-03-07T03:14:42.027Z,99.90
2018-03-07T03:17:10.238Z,99.90
2018-03-07T03:19:37.714Z,99.90
2018-03-07T03:22:05.176Z,99.90
2018-03-07T03:24:32.633Z,99.90
2018-03-07T03:27:00.102Z,99.90
2018-03-07T03:29:27.545Z,99.90
2018-03-07T03:31:55.046Z,99.90
2018-03-07T03:34:23.261Z,99.90
2018-03-07T03:36:50.715Z,99.90
2018-03-07T03:39:18.185Z,99.90
2018-03-07T03:41:45.637Z,99.90
2018-03-07T03:44:13.097Z,99.90
2018-03-07T03:46:40.556Z,99.90
2018-03-07T03:49:08.013Z,99.90
2018-03-07T03:51:35.469Z,99.90
2018-03-07T03:54:02.925Z,99.90
2018-03-07T03:56:30.390Z,99.90
2018-03-07T03:58:57.825Z,99.90
2018-03-07T04:01:25.285Z,99.90
2018-03-07T04:03:52.726Z,99.90
2018-03-07T04:06:20.201Z,99.90
2018-03-07T04:08:47.663Z,99.90
2018-03-07T04:11:15.113Z,99.90
2018-03-07T04:13:42.566Z,99.90
2018-03-07T04:16:10.036Z,99.90
2018-03-07T04:18:37.480Z,99.90
2018-03-07T04:21:04.934Z,99.90
2018-03-07T04:23:32.376Z,99.90
2018-03-07T04:25:59.839Z,99.90
2018-03-07T04:28:27.289Z,99.90
2018-03-07T04:30:54.765Z,99.90
2018-03-07T04:33:22.229Z,99.90
2018-03-07T04:35:49.680Z,99.90
2018-03-07T04:38:17.131Z,99.90
2018-03-07T04:40:44.634Z,99.90
2018-03-07T04:43:12.050Z,99.90
2018-03-07T04:45:39.497Z,99.90
2018-03-07T04:48:06.957Z,99.90
2018-03-07T04:50:34.400Z,99.90
2018-03-07T04:53:01.897Z,99.90
2018-03-07T04:55:29.345Z,99.90
2018-03-07T04:57:56.796Z,99.90
2018-03-07T05:00:24.251Z,99.90
2018-03-07T05:02:51.705Z,99.90
2018-03-07T05:05:19.153Z,99.90
2018-03-07T05:07:46.647Z,99.90
2018-03-07T05:10:14.865Z,99.90
2018-03-07T05:12:42.321Z,99.90
2018-03-07T05:15:09.769Z,99.90
2018-03-07T05:17:37.218Z,99.90
2018-03-07T05:20:04.661Z,99.90
2018-03-07T05:22:32.877Z,99.90
2018-03-07T05:25:00.322Z,99.90
2018-03-07T05:27:27.781Z,99.90
2018-03-07T05:29:55.221Z,99.90
2018-03-07T05:32:22.673Z,99.90
2018-03-07T05:34:50.116Z,99.90
2018-03-07T05:37:18.338Z,99.90
2018-03-07T05:39:45.804Z,99.90
2018-03-07T05:42:13.258Z,99.90
2018-03-07T05:44:40.707Z,99.90
2018-03-07T05:47:08.163Z,99.90
2018-03-07T05:49:35.630Z,99.90
2018-03-07T05:52:03.105Z,99.90
2018-03-07T05:54:30.563Z,99.90
2018-03-07T05:56:58.015Z,99.90
2018-03-07T05:59:25.487Z,99.90
2018-03-07T06:01:53.696Z,99.90
2018-03-07T06:04:21.161Z,99.90
2018-03-07T06:06:48.597Z,99.90
2018-03-07T06:09:16.053Z,99.90
2018-03-07T06:11:43.506Z,99.90
2018-03-07T06:14:10.953Z,99.90
2018-03-07T06:16:39.181Z,99.90
2018-03-07T06:19:06.664Z,99.90
2018-03-07T06:21:34.151Z,99.90
2018-03-07T06:24:02.369Z,99.90
2018-03-07T06:26:29.810Z,99.90
2018-03-07T06:28:57.258Z,99.90
2018-03-07T06:31:24.702Z,99.90
2018-03-07T06:33:52.148Z,99.90
2018-03-07T06:36:19.593Z,99.90
2018-03-07T06:38:47.901Z,99.90
2018-03-07T06:41:15.333Z,99.90
2018-03-07T06:43:43.593Z,99.90
2018-03-07T06:46:11.032Z,99.90
2018-03-07T06:48:39.946Z,99.90
2018-03-07T06:51:08.161Z,99.90
2018-03-07T06:53:35.620Z,99.90
2018-03-07T06:56:03.081Z,99.90
2018-03-07T06:58:30.528Z,99.90
2018-03-07T07:00:57.987Z,99.90
2018-03-07T07:03:25.457Z,99.90
2018-03-07T07:05:52.904Z,99.90
2018-03-07T07:08:20.357Z,99.90
2018-03-07T07:10:47.822Z,99.90
2018-03-07T07:13:15.265Z,99.90
2018-03-07T07:15:42.714Z,99.90
2018-03-07T07:18:10.162Z,99.90
2018-03-07T07:20:37.626Z,99.90
2018-03-07T07:23:05.070Z,99.90
2018-03-07T07:25:32.517Z,99.90
2018-03-07T07:28:00.828Z,99.90
2018-03-07T07:30:28.279Z,99.90
2018-03-07T07:32:55.732Z,99.90
2018-03-07T07:35:23.188Z,99.90
2018-03-07T07:37:50.633Z,99.90
2018-03-07T07:40:18.088Z,99.90
2018-03-07T07:42:45.533Z,99.90
2018-03-07T07:45:13.757Z,99.90
2018-03-07T07:47:41.196Z,99.90
2018-03-07T07:50:08.649Z,99.90
2018-03-07T07:52:36.097Z,99.90
2018-03-07T07:55:03.552Z,99.90
2018-03-07T07:57:30.998Z,99.90
2018-03-07T07:59:58.464Z,99.90
2018-03-07T08:02:25.899Z,99.90
2018-03-07T08:04:54.109Z,99.90
2018-03-07T08:07:21.557Z,99.90
2018-03-07T08:09:49.066Z,99.90
2018-03-07T08:12:17.294Z,99.90
2018-03-07T08:14:45.163Z,99.90
2018-03-07T08:17:12.609Z,99.90
2018-03-07T08:19:40.067Z,99.90
2018-03-07T08:22:07.514Z,99.90
2018-03-07T08:24:34.966Z,99.90
2018-03-07T08:27:02.408Z,99.90
2018-03-07T08:29:30.630Z,99.90
2018-03-07T08:31:58.078Z,99.90
2018-03-07T08:34:25.520Z,99.90
2018-03-07T08:36:52.979Z,99.90
2018-03-07T08:39:20.446Z,99.90
2018-03-07T08:41:47.902Z,99.90
2018-03-07T08:44:15.350Z,99.90
2018-03-07T08:46:42.810Z,99.90
2018-03-07T08:49:10.258Z,99.90
2018-03-07T08:51:37.715Z,99.90
2018-03-07T08:54:05.161Z,99.90
2018-03-07T08:56:32.609Z,99.90
2018-03-07T08:59:00.823Z,99.90
2018-03-07T09:01:28.313Z,99.90
2018-03-07T09:03:55.724Z,99.90
2018-03-07T09:06:23.203Z,99.90
2018-03-07T09:08:50.654Z,99.90
2018-03-07T09:11:18.104Z,99.90
2018-03-07T09:13:45.554Z,99.90
2018-03-07T09:16:13.010Z,99.90
2018-03-07T09:18:40.466Z,99.90
2018-03-07T09:21:07.914Z,99.90
2018-03-07T09:23:35.364Z,99.90
2018-03-07T09:26:02.809Z,99.90
2018-03-07T09:28:30.305Z,99.90
2018-03-07T09:30:57.745Z,99.90
2018-03-07T09:33:25.970Z,99.90
2018-03-07T09:35:53.430Z,99.90
2018-03-07T09:38:21.643Z,99.90
2018-03-07T09:40:49.106Z,99.90
2018-03-07T09:43:16.643Z,99.90
2018-03-07T09:45:44.091Z,99.90
2018-03-07T09:48:12.310Z,99.90
2018-03-07T09:50:39.757Z,99.90
2018-03-07T09:53:07.217Z,99.90
2018-03-07T09:55:34.666Z,99.90
2018-03-07T09:58:02.125Z,99.90
2018-03-07T10:00:29.571Z,99.90
2018-03-07T10:02:57.022Z,99.90
2018-03-07T10:05:24.465Z,99.90
2018-03-07T10:07:51.931Z,99.90
2018-03-07T10:10:19.371Z,99.90
2018-03-07T10:12:47.590Z,99.90
2018-03-07T10:15:15.114Z,99.90
2018-03-07T10:17:42.569Z,99.90
2018-03-07T10:20:10.016Z,99.90
2018-03-07T10:22:38.242Z,99.90
2018-03-07T10:25:05.686Z,99.90
2018-03-07T10:27:33.169Z,99.90
2018-03-07T10:30:00.618Z,99.90
2018-03-07T10:32:28.065Z,99.90
2018-03-07T10:34:55.530Z,99.90
2018-03-07T10:37:22.993Z,99.90
2018-03-07T10:39:50.446Z,99.90
2018-03-07T10:42:17.902Z,99.90
2018-03-07T10:44:45.346Z,99.90
2018-03-07T10:47:13.782Z,99.90
2018-03-07T10:49:41.250Z,99.90
2018-03-07T10:52:08.726Z,99.90
2018-03-07T10:54:36.314Z,99.90
2018-03-07T10:57:03.758Z,99.90
2018-03-07T10:59:31.210Z,99.90
2018-03-07T11:01:58.657Z,99.90
2018-03-07T11:04:26.124Z,99.90
2018-03-07T11:06:53.569Z,99.90
2018-03-07T11:09:21.046Z,99.90
2018-03-07T11:11:48.497Z,99.90
2018-03-07T11:14:15.957Z,99.90
2018-03-07T11:16:43.409Z,99.90
2018-03-07T11:19:10.865Z,99.90
2018-03-07T11:21:38.326Z,99.90
2018-03-07T11:24:05.782Z,99.90
2018-03-07T11:26:33.231Z,99.90
2018-03-07T11:29:00.689Z,99.90
2018-03-07T11:31:28.159Z,99.90
2018-03-07T11:33:55.618Z,99.90
2018-03-07T11:36:23.066Z,99.90
2018-03-07T11:38:50.523Z,99.90
2018-03-07T11:41:17.978Z,99.90
2018-03-07T11:43:45.442Z,99.90
2018-03-07T11:46:12.893Z,99.90
2018-03-07T11:48:40.364Z,99.90
2018-03-07T11:51:07.809Z,99.80
2018-03-07T11:53:35.259Z,99.30
2018-03-07T11:56:02.720Z,99.80
2018-03-07T11:58:30.162Z,99.80
2018-03-07T12:00:57.623Z,99.70
2018-03-07T12:03:25.073Z,99.90
2018-03-07T12:05:52.536Z,99.90
2018-03-07T12:08:19.990Z,99.90
2018-03-07T12:10:47.453Z,99.90
2018-03-07T12:13:14.902Z,99.50
2018-03-07T12:15:42.369Z,99.60
2018-03-07T12:18:09.833Z,99.10
2018-03-07T12:20:37.285Z,97.70
2018-03-07T12:23:04.750Z,97.50
2018-03-07T12:25:32.210Z,97.60
2018-03-07T12:27:59.674Z,98.50
2018-03-07T12:30:27.142Z,98.60
2018-03-07T12:32:55.394Z,98.00
2018-03-07T12:35:22.829Z,98.00
2018-03-07T12:37:50.274Z,98.50
2018-03-07T12:40:17.734Z,98.50
2018-03-07T12:42:45.196Z,96.80
2018-03-07T12:45:12.657Z,95.80
2018-03-07T12:47:40.142Z,94.60
2018-03-07T12:50:07.570Z,95.40
2018-03-07T12:52:35.022Z,94.90
2018-03-07T12:55:02.474Z,94.70
2018-03-07T12:57:30.296Z,94.90
2018-03-07T12:59:58.507Z,95.50
2018-03-07T13:02:25.974Z,95.50
2018-03-07T13:04:53.434Z,96.20
2018-03-07T13:07:20.885Z,96.10
2018-03-07T13:09:48.346Z,96.80
2018-03-07T13:12:15.798Z,97.10
2018-03-07T13:14:43.261Z,97.20
2018-03-07T13:17:10.714Z,97.80
2018-03-07T13:19:38.175Z,99.60
2018-03-07T13:22:05.626Z,99.50
2018-03-07T13:24:33.081Z,99.90
2018-03-07T13:27:00.539Z,99.90
2018-03-07T13:29:27.993Z,99.90
2018-03-07T13:31:55.446Z,99.90
2018-03-07T13:34:23.657Z,99.90
2018-03-07T13:36:51.114Z,99.90
2018-03-07T13:39:18.561Z,99.90
2018-03-07T13:41:46.014Z,99.90
2018-03-07T13:44:13.470Z,99.90
2018-03-07T13:46:40.926Z,99.90
2018-03-07T13:49:08.373Z,99.90
2018-03-07T13:51:35.839Z,99.90
2018-03-07T13:54:03.288Z,99.90
2018-03-07T13:56:30.746Z,99.90
2018-03-07T13:58:58.190Z,99.90
2018-03-07T14:01:25.658Z,99.90
2018-03-07T14:03:53.111Z,99.90
2018-03-07T14:06:20.561Z,99.90
2018-03-07T14:08:48.017Z,98.40
2018-03-07T14:11:15.469Z,98.30
2018-03-07T14:13:42.949Z,96.70
2018-03-07T14:16:10.389Z,96.50
2018-03-07T14:18:37.840Z,97.50
2018-03-07T14:21:05.295Z,98.00
2018-03-07T14:23:32.754Z,98.20
2018-03-07T14:26:00.207Z,98.50
2018-03-07T14:28:27.661Z,97.80
2018-03-07T14:30:55.110Z,97.40
2018-03-07T14:33:22.573Z,97.40
2018-03-07T14:35:50.026Z,96.60
2018-03-07T14:38:17.481Z,95.20
2018-03-07T14:40:44.927Z,95.30
2018-03-07T14:43:12.382Z,95.40
2018-03-07T14:45:39.835Z,94.40
2018-03-07T14:48:08.219Z,94.50
2018-03-07T14:50:35.668Z,94.90
2018-03-07T14:53:03.122Z,94.20
2018-03-07T14:55:30.585Z,94.70
2018-03-07T14:57:58.049Z,95.00
2018-03-07T15:00:25.548Z,95.00
2018-03-07T15:02:52.955Z,94.30
2018-03-07T15:05:20.406Z,93.00
2018-03-07T15:07:47.874Z,94.20
2018-03-07T15:10:15.329Z,93.10
2018-03-07T15:12:42.778Z,93.40
2018-03-07T15:15:10.234Z,94.30
2018-03-07T15:17:37.681Z,94.70
2018-03-07T15:20:05.134Z,94.00
2018-03-07T15:22:32.585Z,94.30
2018-03-07T15:25:00.039Z,94.70
2018-03-07T15:27:27.496Z,95.40
2018-03-07T15:29:54.963Z,96.10
2018-03-07T15:32:22.409Z,96.20
2018-03-07T15:34:49.878Z,96.80
2018-03-07T15:37:17.325Z,95.90
2018-03-07T15:39:44.781Z,96.90
2018-03-07T15:42:12.238Z,96.30
2018-03-07T15:44:39.690Z,96.50
2018-03-07T15:47:07.144Z,96.20
2018-03-07T15:49:35.365Z,96.90
2018-03-07T15:52:02.821Z,96.90
2018-03-07T15:54:30.358Z,97.10
2018-03-07T15:56:57.798Z,97.00
2018-03-07T15:59:25.258Z,97.80
2018-03-07T16:01:52.707Z,97.70
2018-03-07T16:04:20.171Z,98.00
2018-03-07T16:06:47.618Z,98.30
2018-03-07T16:09:15.074Z,98.50
2018-03-07T16:11:42.527Z,98.50
2018-03-07T16:14:10.750Z,99.40
2018-03-07T16:16:38.206Z,99.40
2018-03-07T16:19:05.664Z,99.90
2018-03-07T16:21:33.175Z,99.90
2018-03-07T16:24:01.385Z,99.90
2018-03-07T16:26:28.849Z,99.90
2018-03-07T16:28:56.298Z,99.90
2018-03-07T16:31:23.778Z,99.90
2018-03-07T16:33:51.226Z,99.90
2018-03-07T16:36:18.683Z,99.90
2018-03-07T16:38:46.139Z,99.90
2018-03-07T16:41:13.598Z,99.90
2018-03-07T16:43:41.045Z,99.90
2018-03-07T16:46:08.505Z,99.90
2018-03-07T16:48:35.985Z,99.90
2018-03-07T16:51:03.452Z,99.90
2018-03-07T16:53:30.896Z,99.90
2018-03-07T16:55:58.359Z,99.90
2018-03-07T16:58:25.809Z,99.90
2018-03-07T17:00:53.266Z,99.90
2018-03-07T17:03:20.713Z,99.90
2018-03-07T17:05:48.183Z,99.90
2018-03-07T17:08:15.630Z,99.90
2018-03-07T17:10:43.073Z,99.90
2018-03-07T17:13:10.530Z,99.90
2018-03-07T17:15:37.984Z,99.90
2018-03-07T17:18:05.463Z,99.90
2018-03-07T17:20:32.914Z,99.90
2018-03-07T17:23:00.369Z,99.90
2018-03-07T17:25:27.825Z,99.90
2018-03-07T17:27:56.250Z,99.90
2018-03-07T17:30:23.706Z,99.90
2018-03-07T17:32:51.177Z,99.90
2018-03-07T17:35:18.622Z,99.90
2018-03-07T17:37:46.092Z,99.90
2018-03-07T17:40:13.529Z,99.90
2018-03-07T17:42:40.985Z,99.90
2018-03-07T17:45:08.435Z,99.90
2018-03-07T17:47:36.677Z,99.90
2018-03-07T17:50:04.117Z,99.90
2018-03-07T17:52:31.618Z,99.90
2018-03-07T17:54:59.831Z,99.90
2018-03-07T17:57:27.293Z,99.90
2018-03-07T17:59:54.761Z,99.90
2018-03-07T18:02:22.223Z,99.90
2018-03-07T18:04:49.673Z,99.90
2018-03-07T18:07:17.141Z,99.90
2018-03-07T18:09:44.603Z,99.90
2018-03-07T18:12:12.091Z,99.90
2018-03-07T18:14:40.331Z,99.90
2018-03-07T18:17:07.879Z,99.90
2018-03-07T18:19:35.365Z,99.90
2018-03-07T18:22:02.824Z,99.90
2018-03-07T18:24:30.274Z,99.90
2018-03-07T18:26:57.726Z,99.90
2018-03-07T18:29:25.205Z,99.90
2018-03-07T18:31:53.416Z,99.90
2018-03-07T18:34:20.873Z,99.90
2018-03-07T18:36:48.331Z,99.90
2018-03-07T18:39:15.796Z,99.90
2018-03-07T18:41:43.275Z,99.90
2018-03-07T18:44:10.735Z,99.90
2018-03-07T18:46:38.178Z,99.90
2018-03-07T18:49:05.663Z,99.90
2018-03-07T18:51:33.178Z,99.90
2018-03-07T18:54:00.684Z,99.90
2018-03-07T18:56:28.928Z,99.90
2018-03-07T18:58:56.375Z,99.90
2018-03-07T19:01:23.827Z,99.90
2018-03-07T19:03:51.341Z,99.90
2018-03-07T19:06:19.617Z,99.90
2018-03-07T19:08:47.082Z,99.90
2018-03-07T19:11:14.612Z,99.90
2018-03-07T19:13:42.065Z,99.90
2018-03-07T19:16:09.520Z,99.90
2018-03-07T19:18:36.989Z,99.90
2018-03-07T19:21:05.210Z,99.90
2018-03-07T19:23:32.670Z,99.90
2018-03-07T19:26:00.847Z,99.90
2018-03-07T19:28:28.309Z,99.90
2018-03-07T19:30:55.776Z,99.90
2018-03-07T19:33:23.229Z,99.90
2018-03-07T19:35:50.727Z,99.90
2018-03-07T19:38:18.952Z,99.90
2018-03-07T19:40:46.401Z,99.90
2018-03-07T19:43:13.854Z,99.90
2018-03-07T19:45:41.318Z,99.90
2018-03-07T19:48:08.771Z,99.90
2018-03-07T19:50:36.235Z,99.90
2018-03-07T19:53:03.678Z,99.90
2018-03-07T19:55:31.131Z,99.90
2018-03-07T19:57:58.581Z,99.90
2018-03-07T20:00:26.030Z,99.90
2018-03-07T20:02:53.509Z,99.90
2018-03-07T20:05:20.990Z,99.90
2018-03-07T20:07:48.453Z,99.90
2018-03-07T20:10:15.918Z,99.90
2018-03-07T20:12:43.381Z,99.90
2018-03-07T20:15:10.870Z,99.90
2018-03-07T20:17:52.256Z,99.90
2018-03-07T20:20:19.725Z,99.90
2018-03-07T20:22:47.182Z,99.90
2018-03-07T20:25:14.636Z,99.90
2018-03-07T20:27:42.110Z,99.90
2018-03-07T20:30:09.575Z,99.90
2018-03-07T20:32:37.014Z,99.90
2018-03-07T20:35:04.493Z,99.90
2018-03-07T20:37:31.965Z,99.90
2018-03-07T20:39:59.431Z,99.90
2018-03-07T20:42:27.650Z,99.90
2018-03-07T20:44:55.119Z,99.90
2018-03-07T20:47:22.602Z,99.90
2018-03-07T20:49:50.053Z,99.90
2018-03-07T20:52:17.508Z,99.90
2018-03-07T20:54:44.973Z,99.90
2018-03-07T20:57:12.431Z,99.90
2018-03-07T20:59:39.886Z,99.90
2018-03-07T21:02:07.349Z,99.90
2018-03-07T21:04:34.809Z,99.90
2018-03-07T21:07:02.286Z,99.90
2018-03-07T21:09:30.497Z,99.90
2018-03-07T21:11:57.976Z,99.90
2018-03-07T21:14:25.420Z,99.90
2018-03-07T21:16:52.878Z,99.90
2018-03-07T21:19:20.328Z,99.90
2018-03-07T21:21:47.789Z,99.90
2018-03-07T21:24:16.030Z,99.90
2018-03-07T21:26:43.498Z,99.90
2018-03-07T21:29:10.962Z,99.90
2018-03-07T21:31:38.422Z,99.90
2018-03-07T21:34:05.870Z,99.90
2018-03-07T21:36:33.327Z,99.90
2018-03-07T21:39:00.778Z,99.90
2018-03-07T21:41:28.234Z,99.90
2018-03-07T21:43:55.681Z,99.90
2018-03-07T21:46:23.154Z,99.90
2018-03-07T21:48:50.614Z,99.90
2018-03-07T21:51:18.095Z,99.90
2018-03-07T21:53:45.538Z,99.90
2018-03-07T21:56:13.013Z,99.90
2018-03-07T21:58:40.458Z,99.90
2018-03-07T22:01:07.938Z,99.90
2018-03-07T22:03:35.367Z,99.90
2018-03-07T22:06:02.852Z,99.90
2018-03-07T22:08:30.314Z,99.90
2018-03-07T22:10:58.068Z,99.90
2018-03-07T22:13:25.589Z,99.90
2018-03-07T22:15:53.119Z,99.90
2018-03-07T22:18:20.643Z,99.90
2018-03-07T22:20:48.165Z,99.90
2018-03-07T22:23:15.618Z,99.90
2018-03-07T22:25:43.072Z,99.90
2018-03-07T22:28:10.534Z,99.90
2018-03-07T22:30:37.986Z,99.90
2018-03-07T22:33:05.451Z,99.90
2018-03-07T22:35:32.921Z,99.90
2018-03-07T22:38:00.370Z,99.90
2018-03-07T22:40:27.812Z,99.90
2018-03-07T22:42:55.281Z,99.90
2018-03-07T22:45:22.725Z,99.90
2018-03-07T22:47:50.184Z,99.90
2018-03-07T22:50:17.638Z,99.90
2018-03-07T22:52:45.097Z,99.90
2018-03-07T22:55:12.547Z,99.90
2018-03-07T22:57:40.006Z,99.90
2018-03-07T23:00:13.084Z,99.90
2018-03-07T23:02:40.534Z,99.90
2018-03-07T23:05:07.977Z,99.90
2018-03-07T23:07:35.433Z,99.90
2018-03-07T23:10:03.668Z,99.90
2018-03-07T23:12:31.114Z,99.90
2018-03-07T23:14:58.557Z,99.90
2018-03-07T23:17:26.023Z,99.90
2018-03-07T23:19:53.471Z,99.90
2018-03-07T23:22:20.919Z,99.90
2018-03-07T23:24:48.383Z,99.90
2018-03-07T23:27:15.832Z,99.90
2018-03-07T23:29:43.291Z,99.90
2018-03-07T23:32:10.738Z,99.90
2018-03-07T23:34:38.203Z,99.90
2018-03-07T23:37:05.633Z,99.90
2018-03-07T23:39:33.095Z,99.90
2018-03-07T23:42:00.533Z,99.90
2018-03-07T23:44:28.755Z,99.90
2018-03-07T23:46:56.201Z,99.90
2018-03-07T23:49:23.658Z,99.90
2018-03-07T23:51:51.105Z,99.90
2018-03-07T23:54:18.574Z,99.90
2018-03-07T23:56:46.021Z,99.90
2018-03-07T23:59:13.479Z,99.90
